Clinton, OK

2:20 PM CDT on April 18, 2015 (GMT -0500)
Clinton | | Change Station
CLOSE
Current Station
Personal Weather Station
Location: Clinton, OK
Elevation: 1578 ft
Nearby Weather Stations

Elev 1578 ft 35.52 °N, 98.97 °W | Updated 21 seconds ago

Overcast
Overcast
72.9 °F
Feels Like 76 °F
N
7.4
Wind Variable Wind from South
Gusts 7.4 mph

Today
High -- | Low -- °F
--% Chance of Precip.
Yesterday
High -- | Low -- °F
Precip. -- in
6:59 AM 8:11 PM
New Moon, 0% visible
Pressure 29.85 in
Visibility 10.0 miles
Clouds Scattered Clouds 2300 ft
Mostly Cloudy 4000 ft
Overcast 4900 ft
Heat Index 76 °F
Dew Point 61 °F
Humidity 67%
Rainfall 0.02 in
Snow Depth Not available.
UV 3 out of 12
Pollen 8.60 out of 12
Air Quality Not available.
Flu Activity Regional
METAR KCLK 181915Z AUTO 19006KT 10SM SCT023 BKN040 OVC049 21/14 A2985 RMK AO2

More Conditions Fewer Conditions

Pressure 29.85 in
Visibility 10.0 miles
Clouds Scattered Clouds 2300 ft
Mostly Cloudy 4000 ft
Overcast 4900 ft
Heat Index 76 °F
Dew Point 61 °F
Humidity 67%
Rainfall 0.02 in
Snow Depth Not available.
UV 3 out of 12
Pollen 8.60 out of 12
Air Quality Not available.
Flu Activity Regional
METAR KCLK 181915Z AUTO 19006KT 10SM SCT023 BKN040 OVC049 21/14 A2985 RMK AO2

More Conditions Fewer Conditions

10-Day Weather Forecast

Almanac

Astronomy

Apr. 18, 2015 Rise Set
Actual Time
Civil Twilight
Nautical Twilight
Astronomical Twilight
Moon
Length of Visible Light
Length of Day
Tomorrow will be .
, % of the Moon is Illuminated

Today's Extremes

State Highs State Lows

Community

WunderPhotos

Upload Photos

1,814,501 photos uploaded!

WunderBlogs® & News

Nearby

Air Quality

  Air Quality AQ Index Pollutant
Not available.

Snow Depth

Station Depth Elevation

Earthquake Activity

City Distance Mag. Time & Date
Minimum magnitude displayed is 2.5.

Coastal Water Temperatures

Place Temperature

Stations

Nearby Weather Stations

Station Location Temp. Windchill Dew Point Humidity Wind Precip. Elev Updated Type